createdAt,value
2023-04-28T00:00:31.508Z,72.98
2023-04-28T00:02:59.126Z,72.35
2023-04-28T00:05:27.341Z,72.25
2023-04-28T00:07:55.185Z,72.91
2023-04-28T00:10:22.309Z,72.20
2023-04-28T00:12:49.794Z,72.57
2023-04-28T00:15:18.400Z,72.07
2023-04-28T00:17:45.691Z,72.40
2023-04-28T00:20:13.276Z,72.34
2023-04-28T00:22:41.229Z,71.91
2023-04-28T00:25:09.229Z,71.83
2023-04-28T00:27:37.551Z,72.23
2023-04-28T00:30:05.362Z,71.75
2023-04-28T00:32:32.696Z,72.43
2023-04-28T00:35:01.833Z,72.30
2023-04-28T00:37:29.452Z,72.31
2023-04-28T00:39:57.327Z,72.72
2023-04-28T00:42:24.722Z,72.77
2023-04-28T00:44:51.728Z,72.63
2023-04-28T00:47:19.836Z,72.74
2023-04-28T00:49:49.756Z,72.08
2023-04-28T00:52:17.375Z,72.40
2023-04-28T00:54:44.803Z,72.79
2023-04-28T00:57:11.930Z,72.08
2023-04-28T00:59:38.762Z,72.72
2023-04-28T01:02:08.073Z,72.35
2023-04-28T01:04:37.653Z,72.47
2023-04-28T01:07:05.174Z,72.42
2023-04-28T01:09:33.070Z,71.97
2023-04-28T01:12:00.806Z,71.68
2023-04-28T01:14:49.633Z,71.91
2023-04-28T01:17:18.334Z,71.80
2023-04-28T01:19:45.502Z,72.03
2023-04-28T01:22:16.118Z,71.67
2023-04-28T01:24:44.367Z,71.63
2023-04-28T01:27:13.740Z,71.54
2023-04-28T01:29:41.947Z,71.50
2023-04-28T01:32:10.239Z,72.15
2023-04-28T01:34:37.721Z,72.02
2023-04-28T01:37:06.638Z,72.51
2023-04-28T01:39:35.362Z,73.46
2023-04-28T01:42:03.951Z,73.56
2023-04-28T01:44:31.059Z,74.25
2023-04-28T01:46:58.115Z,74.57
2023-04-28T01:49:25.757Z,74.99
2023-04-28T01:51:53.071Z,75.52
2023-04-28T01:54:21.158Z,76.62
2023-04-28T01:56:51.536Z,77.05
2023-04-28T01:59:21.102Z,77.29
2023-04-28T02:01:48.493Z,77.88
2023-04-28T02:04:16.387Z,78.56
2023-04-28T02:06:43.964Z,79.08
2023-04-28T02:09:13.321Z,79.90
2023-04-28T02:11:40.933Z,79.92
2023-04-28T02:14:10.914Z,80.73
2023-04-28T02:16:38.442Z,81.21
2023-04-28T02:19:05.803Z,81.84
2023-04-28T02:21:33.526Z,82.12
2023-04-28T02:24:01.092Z,82.46
2023-04-28T02:26:29.678Z,82.87
2023-04-28T02:28:57.763Z,83.88
2023-04-28T02:31:25.842Z,84.23
2023-04-28T02:33:54.861Z,84.85
2023-04-28T02:36:23.152Z,85.44
2023-04-28T02:38:51.084Z,85.10
2023-04-28T02:41:19.182Z,86.03
2023-04-28T02:43:46.656Z,85.50
2023-04-28T02:46:15.380Z,85.84
2023-04-28T02:48:45.037Z,86.16
2023-04-28T02:51:14.629Z,86.46
2023-04-28T02:53:43.590Z,86.73
2023-04-28T02:56:12.145Z,86.19
2023-04-28T02:58:40.544Z,86.22
2023-04-28T03:01:11.737Z,86.17
2023-04-28T03:03:41.447Z,85.93
2023-04-28T03:06:10.738Z,85.92
2023-04-28T03:08:38.507Z,85.26
2023-04-28T03:11:07.151Z,85.77
2023-04-28T03:13:34.259Z,85.71
2023-04-28T03:16:02.656Z,85.41
2023-04-28T03:18:29.790Z,85.06
2023-04-28T03:20:59.467Z,84.94
2023-04-28T03:23:29.044Z,84.11
2023-04-28T03:25:57.205Z,84.26
2023-04-28T03:28:25.637Z,83.65
2023-04-28T03:30:55.279Z,83.71
2023-04-28T03:33:22.901Z,83.35
2023-04-28T03:35:51.328Z,82.77
2023-04-28T03:38:26.196Z,82.45
2023-04-28T03:40:54.649Z,82.37
2023-04-28T03:43:54.217Z,81.50
2023-04-28T03:46:26.688Z,81.30
2023-04-28T03:48:56.422Z,81.79
2023-04-28T03:51:24.579Z,81.04
2023-04-28T03:53:54.373Z,79.79
2023-04-28T03:56:22.667Z,78.09
2023-04-28T03:58:50.958Z,75.62
2023-04-28T04:01:19.160Z,74.10
2023-04-28T04:03:50.265Z,72.94
2023-04-28T04:06:27.651Z,69.77
2023-04-28T04:08:56.233Z,68.23
2023-04-28T04:11:23.632Z,67.38
2023-04-28T04:13:50.960Z,65.03
2023-04-28T04:16:19.293Z,64.39
2023-04-28T04:18:47.816Z,63.25
2023-04-28T04:21:19.585Z,62.32
2023-04-28T04:23:50.025Z,60.77
2023-04-28T04:26:17.204Z,60.86
2023-04-28T04:28:44.250Z,60.37
2023-04-28T04:31:11.592Z,59.84
2023-04-28T04:33:40.087Z,60.22
2023-04-28T04:36:07.965Z,59.00
2023-04-28T04:38:35.464Z,58.35
2023-04-28T04:41:12.196Z,56.14
2023-04-28T04:43:42.183Z,55.62
2023-04-28T04:46:09.817Z,55.50
2023-04-28T04:48:36.738Z,53.70
2023-04-28T04:51:03.849Z,53.52
2023-04-28T04:53:31.735Z,51.51
2023-04-28T04:55:59.213Z,51.44
2023-04-28T04:58:27.180Z,49.90
2023-04-28T05:01:12.610Z,49.59
2023-04-28T05:03:40.860Z,48.11
2023-04-28T05:06:11.255Z,48.72
2023-04-28T05:08:44.785Z,48.29
2023-04-28T05:11:11.904Z,48.10
2023-04-28T05:13:41.830Z,47.68
2023-04-28T05:16:09.080Z,46.77
2023-04-28T05:18:38.588Z,45.76
2023-04-28T05:21:06.455Z,43.54
2023-04-28T05:23:34.068Z,42.83
2023-04-28T05:26:05.480Z,42.20
2023-04-28T05:28:33.353Z,41.38
2023-04-28T05:31:02.015Z,41.61
2023-04-28T05:33:30.931Z,40.59
2023-04-28T05:35:58.957Z,39.26
2023-04-28T05:38:26.449Z,40.11
2023-04-28T05:40:54.974Z,38.87
2023-04-28T05:43:22.505Z,38.40
2023-04-28T05:45:53.348Z,37.46
2023-04-28T05:48:20.755Z,36.74
2023-04-28T05:50:48.026Z,36.81
2023-04-28T05:53:15.165Z,36.56
2023-04-28T05:55:42.393Z,35.77
2023-04-28T05:58:10.781Z,35.92
2023-04-28T06:00:38.554Z,36.62
2023-04-28T06:03:07.269Z,35.81
2023-04-28T06:05:37.418Z,35.42
2023-04-28T06:08:08.166Z,34.47
2023-04-28T06:10:38.140Z,35.23
2023-04-28T06:13:06.507Z,36.56
2023-04-28T06:15:34.154Z,37.47
2023-04-28T06:18:02.114Z,37.95
2023-04-28T06:20:31.202Z,35.41
2023-04-28T06:22:58.932Z,35.67
2023-04-28T06:25:27.310Z,35.27
2023-04-28T06:27:54.966Z,34.76
2023-04-28T06:30:25.091Z,34.55
2023-04-28T06:32:52.981Z,34.06
2023-04-28T06:35:21.677Z,33.64
2023-04-28T06:37:49.093Z,32.98
2023-04-28T06:40:16.442Z,30.96
2023-04-28T06:42:51.146Z,31.01
2023-04-28T06:45:24.924Z,31.35
2023-04-28T06:47:52.720Z,30.64
2023-04-28T06:50:20.424Z,30.50
2023-04-28T06:52:47.888Z,30.53
2023-04-28T06:55:20.354Z,30.65
2023-04-28T06:57:47.487Z,30.05
2023-04-28T07:00:15.168Z,29.71
2023-04-28T07:02:43.093Z,29.30
2023-04-28T07:05:11.123Z,28.11
2023-04-28T07:07:41.454Z,27.81
2023-04-28T07:10:09.373Z,29.54
2023-04-28T07:12:37.088Z,29.06
2023-04-28T07:15:04.457Z,29.05
2023-04-28T07:17:31.369Z,28.45
2023-04-28T07:19:58.469Z,27.37
2023-04-28T07:22:25.857Z,25.56
2023-04-28T07:24:53.504Z,25.89
2023-04-28T07:27:20.886Z,25.26
2023-04-28T07:29:48.400Z,24.95
2023-04-28T07:32:15.791Z,22.57
2023-04-28T07:34:43.893Z,24.54
2023-04-28T07:37:12.473Z,24.18
2023-04-28T07:39:42.594Z,25.52
2023-04-28T07:42:10.932Z,24.90
2023-04-28T07:44:38.610Z,25.82
2023-04-28T07:47:06.735Z,24.61
2023-04-28T07:49:33.934Z,24.59
2023-04-28T07:52:01.350Z,24.39
2023-04-28T07:54:29.947Z,24.76
2023-04-28T07:57:00.483Z,25.66
2023-04-28T07:59:27.652Z,24.85
2023-04-28T08:01:54.555Z,24.32
2023-04-28T08:04:22.378Z,23.53
2023-04-28T08:06:51.540Z,23.08
2023-04-28T08:09:20.392Z,23.70
2023-04-28T08:11:47.425Z,23.92
2023-04-28T08:14:14.579Z,24.27
2023-04-28T08:16:42.358Z,23.67
2023-04-28T08:19:13.233Z,22.98
2023-04-28T08:21:39.989Z,20.95
2023-04-28T08:24:11.183Z,23.45
2023-04-28T08:26:43.783Z,24.72
2023-04-28T08:29:11.080Z,23.33
2023-04-28T08:31:39.134Z,23.38
2023-04-28T08:34:07.427Z,23.59
2023-04-28T08:36:35.474Z,22.14
2023-04-28T08:39:04.444Z,23.32
2023-04-28T08:41:33.372Z,23.29
2023-04-28T08:44:01.509Z,23.08
2023-04-28T08:46:31.274Z,23.09
2023-04-28T08:49:04.473Z,23.94
2023-04-28T08:51:37.831Z,24.59
2023-04-28T08:56:39.202Z,23.91
2023-04-28T08:59:06.617Z,23.78
2023-04-28T09:01:34.143Z,24.29
2023-04-28T09:04:03.241Z,26.00
2023-04-28T09:06:53.694Z,24.26
2023-04-28T09:09:33.304Z,25.09
2023-04-28T09:12:04.285Z,24.74
2023-04-28T09:14:33.182Z,23.20
2023-04-28T09:17:00.895Z,23.84
2023-04-28T09:19:41.105Z,23.80
2023-04-28T09:22:24.688Z,24.25
2023-04-28T09:24:54.309Z,23.01
2023-04-28T09:27:28.510Z,22.43
2023-04-28T09:29:55.982Z,22.91
2023-04-28T09:32:24.450Z,23.29
2023-04-28T09:34:53.900Z,24.06
2023-04-28T09:37:24.358Z,23.85
2023-04-28T09:39:54.344Z,24.04
2023-04-28T09:42:38.995Z,23.65
2023-04-28T09:45:07.885Z,21.23
2023-04-28T09:47:38.538Z,22.06
2023-04-28T09:50:12.704Z,22.84
2023-04-28T09:52:41.417Z,22.79
2023-04-28T09:55:12.197Z,22.84
2023-04-28T09:57:40.123Z,23.27
2023-04-28T10:00:09.449Z,21.04
2023-04-28T10:05:10.213Z,22.08
2023-04-28T10:07:38.157Z,22.53
2023-04-28T10:10:07.066Z,23.32
2023-04-28T10:12:35.331Z,24.03
2023-04-28T10:15:12.970Z,23.12
2023-04-28T10:17:44.185Z,21.16
2023-04-28T10:20:12.960Z,21.49
2023-04-28T10:23:14.848Z,19.70
2023-04-28T10:25:50.425Z,20.21
2023-04-28T10:28:18.818Z,21.29
2023-04-28T10:31:16.030Z,21.00
2023-04-28T10:33:43.966Z,22.58
2023-04-28T10:36:11.607Z,22.39
2023-04-28T10:41:56.440Z,21.29
2023-04-28T10:44:30.056Z,21.74
2023-04-28T10:47:06.734Z,22.54
2023-04-28T10:49:58.883Z,20.87
2023-04-28T10:52:42.194Z,21.17
2023-04-28T10:55:30.854Z,20.13
2023-04-28T10:58:36.452Z,19.87
2023-04-28T11:01:21.980Z,18.73
2023-04-28T11:03:54.462Z,19.15
2023-04-28T11:06:32.469Z,20.08
2023-04-28T11:09:15.104Z,21.15
2023-04-28T11:12:01.253Z,21.28
2023-04-28T11:14:34.714Z,20.26
2023-04-28T11:17:06.673Z,19.74
2023-04-28T11:19:44.679Z,20.59
2023-04-28T11:22:20.137Z,19.36
2023-04-28T11:25:05.607Z,19.43
2023-04-28T11:27:34.039Z,18.60
2023-04-28T11:30:02.137Z,17.25
2023-04-28T11:32:36.663Z,18.71
2023-04-28T11:35:11.493Z,18.32
2023-04-28T11:37:46.776Z,16.97
2023-04-28T11:40:17.294Z,17.94
2023-04-28T11:42:49.695Z,18.62
2023-04-28T11:45:16.855Z,19.48
2023-04-28T11:47:43.706Z,20.67
2023-04-28T11:50:11.168Z,20.50
2023-04-28T11:52:53.690Z,20.46
2023-04-28T11:55:29.039Z,20.71
2023-04-28T12:01:12.430Z,18.84
2023-04-28T12:03:52.495Z,18.77
2023-04-28T12:06:20.398Z,19.51
2023-04-28T12:08:47.773Z,19.73
2023-04-28T12:11:19.945Z,20.22
2023-04-28T12:14:04.580Z,21.00
2023-04-28T12:16:44.548Z,22.34
2023-04-28T12:19:12.849Z,23.25
2023-04-28T12:21:41.684Z,22.96
2023-04-28T12:24:16.611Z,23.40
2023-04-28T12:26:43.795Z,23.03
2023-04-28T12:29:42.920Z,24.17
2023-04-28T12:32:12.701Z,25.49
2023-04-28T12:34:42.117Z,27.08
2023-04-28T12:37:09.896Z,25.58
2023-04-28T12:39:39.818Z,25.28
2023-04-28T12:42:08.186Z,26.22
2023-04-28T12:44:38.659Z,24.47
2023-04-28T12:47:12.501Z,23.82
2023-04-28T12:49:52.465Z,24.21
2023-04-28T12:52:26.234Z,23.65
2023-04-28T12:55:06.118Z,23.21
2023-04-28T12:57:33.435Z,22.00
2023-04-28T13:00:01.858Z,21.61
2023-04-28T13:02:34.807Z,21.92
2023-04-28T13:05:03.556Z,22.71
2023-04-28T13:07:34.204Z,22.62
2023-04-28T13:10:02.124Z,23.79
2023-04-28T13:12:33.550Z,24.36
2023-04-28T13:15:09.979Z,24.37
2023-04-28T13:23:03.843Z,22.74
2023-04-28T13:25:31.484Z,23.82
2023-04-28T13:27:58.746Z,22.98
2023-04-28T13:30:26.972Z,23.01
2023-04-28T13:32:56.170Z,22.14
2023-04-28T13:35:25.502Z,22.71
2023-04-28T13:37:56.255Z,22.33
2023-04-28T13:40:24.342Z,21.58
2023-04-28T13:42:58.342Z,22.31
2023-04-28T13:45:27.318Z,22.41
2023-04-28T13:47:55.207Z,22.44
2023-04-28T13:50:23.485Z,22.77
2023-04-28T13:52:54.192Z,23.10
2023-04-28T13:55:34.839Z,23.57
2023-04-28T13:58:04.941Z,24.24
2023-04-28T14:00:37.568Z,24.68
2023-04-28T14:03:10.290Z,24.44
2023-04-28T14:05:49.492Z,24.03
2023-04-28T14:08:20.270Z,25.14
2023-04-28T14:10:48.782Z,24.99
2023-04-28T14:13:16.551Z,25.27
2023-04-28T14:15:51.338Z,26.05
2023-04-28T14:18:25.615Z,26.47
2023-04-28T14:20:59.645Z,26.42
2023-04-28T14:23:28.732Z,26.45
2023-04-28T14:25:58.668Z,26.94
2023-04-28T14:28:26.411Z,26.27
2023-04-28T14:31:05.507Z,27.32
2023-04-28T14:33:42.076Z,27.32
2023-04-28T14:36:23.265Z,26.93
2023-04-28T14:38:50.642Z,27.45
2023-04-28T14:41:18.131Z,28.08
2023-04-28T14:43:46.237Z,27.51
2023-04-28T14:46:13.558Z,27.52
2023-04-28T14:48:49.189Z,28.91
2023-04-28T14:51:17.191Z,28.60
2023-04-28T14:53:44.394Z,29.07
2023-04-28T14:56:19.096Z,29.41
2023-04-28T14:58:57.334Z,29.70
2023-04-28T15:01:24.871Z,30.10
2023-04-28T15:03:52.166Z,30.53
2023-04-28T15:06:22.622Z,31.92
2023-04-28T15:08:53.449Z,31.69
2023-04-28T15:11:25.721Z,33.95
2023-04-28T15:14:07.305Z,34.22
2023-04-28T15:16:34.548Z,33.00
2023-04-28T15:19:02.485Z,33.77
2023-04-28T15:21:29.897Z,33.08
2023-04-28T15:24:18.627Z,33.73
2023-04-28T15:26:46.337Z,33.54
2023-04-28T15:29:14.183Z,33.83
2023-04-28T15:31:47.496Z,35.03
2023-04-28T15:34:18.666Z,34.63
2023-04-28T15:36:54.463Z,35.59
2023-04-28T15:39:49.047Z,35.20
2023-04-28T15:42:34.709Z,36.08
2023-04-28T15:45:13.924Z,35.82
2023-04-28T15:47:45.839Z,35.91
2023-04-28T15:50:13.384Z,36.76
2023-04-28T15:53:26.375Z,35.97
2023-04-28T15:55:58.544Z,36.24
2023-04-28T15:58:26.000Z,36.57
2023-04-28T16:00:53.709Z,36.23
2023-04-28T16:03:21.990Z,36.19
2023-04-28T16:05:49.515Z,35.99
2023-04-28T16:08:36.254Z,36.41
2023-04-28T16:11:06.019Z,36.59
2023-04-28T16:13:38.597Z,36.73
2023-04-28T16:16:12.650Z,37.90
2023-04-28T16:18:47.170Z,38.61
2023-04-28T16:21:17.777Z,38.17
2023-04-28T16:23:47.943Z,38.37
2023-04-28T16:26:27.946Z,38.71
2023-04-28T16:29:33.043Z,38.96
2023-04-28T16:32:16.071Z,38.59
2023-04-28T16:34:44.788Z,38.48
2023-04-28T16:37:12.250Z,39.11
2023-04-28T16:39:43.706Z,39.14
2023-04-28T16:42:13.932Z,38.40
2023-04-28T16:44:47.212Z,39.07
2023-04-28T16:47:15.555Z,39.41
2023-04-28T16:49:46.060Z,39.51
2023-04-28T16:52:17.460Z,39.78
2023-04-28T16:54:57.843Z,39.56
2023-04-28T16:57:36.766Z,40.03
2023-04-28T17:00:05.729Z,40.61
2023-04-28T17:02:53.677Z,39.91
2023-04-28T17:06:02.485Z,41.45
2023-04-28T17:08:34.352Z,41.40
2023-04-28T17:11:21.508Z,41.46
2023-04-28T17:14:02.155Z,42.47
2023-04-28T17:16:48.120Z,43.39
2023-04-28T17:22:27.450Z,43.97
2023-04-28T17:25:04.103Z,45.02
2023-04-28T17:28:15.876Z,44.57
2023-04-28T17:30:47.409Z,45.53
2023-04-28T17:33:33.628Z,45.74
2023-04-28T17:36:16.821Z,47.22
2023-04-28T17:38:55.321Z,46.69
2023-04-28T17:42:01.748Z,49.16
2023-04-28T17:44:32.931Z,48.97
2023-04-28T17:47:02.735Z,49.45
2023-04-28T17:49:30.000Z,49.75
2023-04-28T17:52:00.926Z,51.56
2023-04-28T17:54:28.195Z,50.21
2023-04-28T17:56:56.299Z,50.86
2023-04-28T17:59:28.106Z,50.93
2023-04-28T18:01:56.516Z,50.28
2023-04-28T18:04:44.280Z,50.60
2023-04-28T18:07:12.247Z,51.19
2023-04-28T18:09:42.396Z,50.42
2023-04-28T18:12:10.075Z,51.22
2023-04-28T18:14:37.654Z,50.43
2023-04-28T18:17:08.701Z,50.84
2023-04-28T18:19:36.981Z,50.35
2023-04-28T18:22:04.643Z,50.81
2023-04-28T18:24:33.439Z,51.47
2023-04-28T18:27:00.710Z,52.28
2023-04-28T18:29:34.086Z,51.19
2023-04-28T18:32:07.138Z,51.37
2023-04-28T18:34:41.542Z,52.13
2023-04-28T18:37:09.742Z,52.31
2023-04-28T18:39:38.956Z,51.61
2023-04-28T18:42:10.205Z,52.65
2023-04-28T18:44:37.354Z,54.12
2023-04-28T18:47:04.834Z,52.44
2023-04-28T18:49:36.849Z,52.70
2023-04-28T18:52:04.901Z,53.11
2023-04-28T18:54:33.000Z,53.99
2023-04-28T18:57:06.069Z,53.52
2023-04-28T18:59:33.566Z,53.56
2023-04-28T19:02:03.398Z,54.94
2023-04-28T19:04:33.464Z,55.09
2023-04-28T19:07:03.926Z,54.30
2023-04-28T19:09:32.274Z,54.86
2023-04-28T19:11:59.770Z,55.14
2023-04-28T19:14:27.119Z,55.05
2023-04-28T19:16:55.382Z,55.97
2023-04-28T19:19:22.695Z,55.67
2023-04-28T19:21:53.527Z,56.67
2023-04-28T19:24:25.768Z,57.27
2023-04-28T19:26:54.397Z,57.37
2023-04-28T19:29:26.578Z,56.96
2023-04-28T19:31:57.300Z,57.16
2023-04-28T19:34:24.705Z,56.76
2023-04-28T19:37:00.600Z,58.45
2023-04-28T19:39:31.166Z,58.82
2023-04-28T19:42:07.720Z,58.80
2023-04-28T19:44:38.428Z,58.47
2023-04-28T19:47:08.274Z,59.06
2023-04-28T19:49:40.747Z,59.23
2023-04-28T19:52:10.469Z,59.55
2023-04-28T19:54:41.879Z,59.87
2023-04-28T19:57:09.723Z,59.81
2023-04-28T19:59:40.745Z,60.42
2023-04-28T20:02:08.938Z,60.25
2023-04-28T20:04:40.893Z,61.12
2023-04-28T20:07:10.980Z,61.55
2023-04-28T20:09:42.420Z,61.92
2023-04-28T20:12:09.839Z,62.22
2023-04-28T20:14:40.290Z,61.10
2023-04-28T20:17:13.714Z,61.99
2023-04-28T20:19:42.389Z,64.39
2023-04-28T20:22:10.311Z,64.14
2023-04-28T20:24:39.985Z,65.04
2023-04-28T20:27:14.600Z,66.43
2023-04-28T20:29:45.330Z,66.18
2023-04-28T20:32:15.703Z,65.30
2023-04-28T20:34:48.041Z,66.09
2023-04-28T20:37:17.150Z,66.72
2023-04-28T20:39:44.602Z,67.17
2023-04-28T20:42:12.149Z,66.68
2023-04-28T20:44:47.108Z,67.27
2023-04-28T20:47:14.684Z,68.08
2023-04-28T20:49:42.831Z,67.92
2023-04-28T20:52:10.305Z,71.37
2023-04-28T20:54:37.648Z,68.77
2023-04-28T20:57:10.081Z,70.04
2023-04-28T20:59:38.590Z,70.03
2023-04-28T21:02:10.513Z,70.63
2023-04-28T21:04:37.845Z,70.96
2023-04-28T21:07:05.625Z,72.28
2023-04-28T21:09:32.956Z,72.76
2023-04-28T21:12:00.460Z,72.60
2023-04-28T21:14:27.904Z,72.02
2023-04-28T21:16:54.960Z,71.86
2023-04-28T21:19:23.856Z,72.34
2023-04-28T21:21:53.527Z,72.54
2023-04-28T21:24:23.965Z,73.24
2023-04-28T21:26:52.266Z,72.79
2023-04-28T21:29:21.888Z,71.85
2023-04-28T21:31:52.140Z,71.19
2023-04-28T21:34:19.920Z,70.80
2023-04-28T21:36:47.342Z,70.17
2023-04-28T21:39:14.638Z,70.31
2023-04-28T21:41:44.725Z,70.26
2023-04-28T21:44:24.136Z,71.35
2023-04-28T21:46:52.063Z,71.51
2023-04-28T21:49:22.102Z,71.21
2023-04-28T21:51:49.955Z,72.15
2023-04-28T21:54:19.916Z,73.47
2023-04-28T21:56:47.537Z,74.51
2023-04-28T21:59:14.789Z,75.08
2023-04-28T22:01:42.384Z,74.67
2023-04-28T22:04:10.289Z,74.29
2023-04-28T22:06:37.694Z,74.25
2023-04-28T22:09:07.970Z,74.21
2023-04-28T22:11:41.302Z,74.65
2023-04-28T22:14:08.687Z,74.63
2023-04-28T22:16:36.779Z,73.22
2023-04-28T22:19:04.128Z,74.02
2023-04-28T22:21:34.824Z,75.15
2023-04-28T22:24:07.030Z,75.62
2023-04-28T22:26:37.679Z,75.43
2023-04-28T22:29:04.944Z,74.25
2023-04-28T22:31:32.514Z,73.67
2023-04-28T22:33:59.735Z,74.31
2023-04-28T22:36:32.029Z,74.80
2023-04-28T22:39:06.255Z,75.84
2023-04-28T22:41:33.434Z,75.09
2023-04-28T22:44:04.622Z,75.37
2023-04-28T22:46:32.240Z,75.19
2023-04-28T22:49:01.826Z,75.27
2023-04-28T22:51:30.382Z,74.72
2023-04-28T22:53:57.749Z,74.04
2023-04-28T22:56:25.155Z,74.59
2023-04-28T22:58:53.111Z,74.71
2023-04-28T23:01:21.085Z,74.42
2023-04-28T23:03:51.211Z,73.88
2023-04-28T23:06:18.590Z,73.27
2023-04-28T23:08:53.832Z,73.45
2023-04-28T23:11:24.706Z,73.28
2023-04-28T23:13:52.433Z,72.99
2023-04-28T23:16:20.038Z,73.52
2023-04-28T23:18:54.049Z,72.36
2023-04-28T23:21:21.881Z,73.19
2023-04-28T23:23:52.839Z,73.38
2023-04-28T23:26:20.954Z,72.75
2023-04-28T23:28:54.002Z,72.68
2023-04-28T23:31:22.608Z,73.11
2023-04-28T23:33:50.449Z,73.01
2023-04-28T23:36:17.502Z,73.20
2023-04-28T23:38:44.848Z,72.71
2023-04-28T23:41:12.477Z,73.20
2023-04-28T23:43:41.701Z,73.01
2023-04-28T23:46:10.134Z,72.58
2023-04-28T23:48:40.056Z,73.50
2023-04-28T23:51:12.395Z,72.64
2023-04-28T23:53:40.274Z,72.28
2023-04-28T23:56:10.228Z,72.19
2023-04-28T23:58:39.450Z,72.41
